sensor_id;sensor_type;location;lat;lon;timestamp;P1;durP1;ratioP1;P2;durP2;ratioP2
2620;SDS011;1320;48.128;11.592;2023-03-01T00:01:16;17.88;;;13.38;;
2620;SDS011;1320;48.128;11.592;2023-03-01T00:03:44;24.33;;;15.68;;
2620;SDS011;1320;48.128;11.592;2023-03-01T00:06:10;20.58;;;14.07;;
2620;SDS011;1320;48.128;11.592;2023-03-01T00:08:37;19.63;;;13.65;;
2620;SDS011;1320;48.128;11.592;2023-03-01T00:11:07;24.70;;;14.83;;
2620;SDS011;1320;48.128;11.592;2023-03-01T00:13:39;20.77;;;14.20;;
2620;SDS011;1320;48.128;11.592;2023-03-01T00:16:06;21.42;;;14.93;;
2620;SDS011;1320;48.128;11.592;2023-03-01T00:18:35;18.88;;;13.35;;
2620;SDS011;1320;48.128;11.592;2023-03-01T00:21:00;19.80;;;14.43;;
2620;SDS011;1320;48.128;11.592;2023-03-01T00:23:26;21.47;;;15.70;;
2620;SDS011;1320;48.128;11.592;2023-03-01T00:25:52;19.80;;;13.87;;
2620;SDS011;1320;48.128;11.592;2023-03-01T00:28:19;18.25;;;13.07;;
2620;SDS011;1320;48.128;11.592;2023-03-01T00:30:45;19.00;;;14.30;;
2620;SDS011;1320;48.128;11.592;2023-03-01T00:33:11;23.35;;;15.70;;
2620;SDS011;1320;48.128;11.592;2023-03-01T00:35:38;24.20;;;12.70;;
2620;SDS011;1320;48.128;11.592;2023-03-01T00:38:04;19.83;;;13.15;;
2620;SDS011;1320;48.128;11.592;2023-03-01T00:40:31;22.58;;;14.02;;
2620;SDS011;1320;48.128;11.592;2023-03-01T00:42:58;19.40;;;13.35;;
2620;SDS011;1320;48.128;11.592;2023-03-01T00:45:24;23.77;;;15.90;;
2620;SDS011;1320;48.128;11.592;2023-03-01T00:47:50;19.73;;;13.25;;
2620;SDS011;1320;48.128;11.592;2023-03-01T00:50:16;23.10;;;15.10;;
2620;SDS011;1320;48.128;11.592;2023-03-01T00:52:42;20.90;;;14.20;;
2620;SDS011;1320;48.128;11.592;2023-03-01T00:55:08;18.95;;;14.10;;
2620;SDS011;1320;48.128;11.592;2023-03-01T00:57:35;22.27;;;14.10;;
2620;SDS011;1320;48.128;11.592;2023-03-01T01:00:01;23.27;;;15.73;;
2620;SDS011;1320;48.128;11.592;2023-03-01T01:02:28;21.58;;;15.25;;
2620;SDS011;1320;48.128;11.592;2023-03-01T01:04:53;21.10;;;14.87;;
2620;SDS011;1320;48.128;11.592;2023-03-01T01:07:19;20.40;;;13.00;;
2620;SDS011;1320;48.128;11.592;2023-03-01T01:09:47;21.85;;;14.02;;
2620;SDS011;1320;48.128;11.592;2023-03-01T01:12:13;26.17;;;15.77;;
2620;SDS011;1320;48.128;11.592;2023-03-01T01:14:39;28.20;;;16.00;;
2620;SDS011;1320;48.128;11.592;2023-03-01T01:17:04;21.30;;;14.20;;
2620;SDS011;1320;48.128;11.592;2023-03-01T01:19:30;19.83;;;14.17;;
2620;SDS011;1320;48.128;11.592;2023-03-01T01:21:56;20.90;;;13.93;;
2620;SDS011;1320;48.128;11.592;2023-03-01T01:24:21;27.30;;;15.53;;
2620;SDS011;1320;48.128;11.592;2023-03-01T01:26:47;22.73;;;12.97;;
2620;SDS011;1320;48.128;11.592;2023-03-01T01:29:13;21.70;;;14.40;;
2620;SDS011;1320;48.128;11.592;2023-03-01T01:31:39;21.47;;;13.33;;
2620;SDS011;1320;48.128;11.592;2023-03-01T01:34:07;18.65;;;13.15;;
2620;SDS011;1320;48.128;11.592;2023-03-01T01:36:36;23.95;;;13.90;;
2620;SDS011;1320;48.128;11.592;2023-03-01T01:39:02;24.33;;;16.53;;
2620;SDS011;1320;48.128;11.592;2023-03-01T01:41:28;18.10;;;13.20;;
2620;SDS011;1320;48.128;11.592;2023-03-01T01:51:41;19.50;;;13.97;;
2620;SDS011;1320;48.128;11.592;2023-03-01T01:54:11;24.88;;;14.55;;
2620;SDS011;1320;48.128;11.592;2023-03-01T01:56:41;22.92;;;14.98;;
2620;SDS011;1320;48.128;11.592;2023-03-01T01:59:11;20.75;;;14.45;;
2620;SDS011;1320;48.128;11.592;2023-03-01T02:01:37;18.70;;;13.67;;
2620;SDS011;1320;48.128;11.592;2023-03-01T02:04:03;19.70;;;13.67;;
2620;SDS011;1320;48.128;11.592;2023-03-01T02:06:32;19.55;;;14.07;;
2620;SDS011;1320;48.128;11.592;2023-03-01T02:09:04;23.67;;;15.85;;
2620;SDS011;1320;48.128;11.592;2023-03-01T02:11:33;19.50;;;13.85;;
2620;SDS011;1320;48.128;11.592;2023-03-01T02:13:59;27.08;;;15.25;;
2620;SDS011;1320;48.128;11.592;2023-03-01T02:16:25;20.50;;;13.33;;
2620;SDS011;1320;48.128;11.592;2023-03-01T02:18:51;19.88;;;14.80;;
2620;SDS011;1320;48.128;11.592;2023-03-01T02:21:35;19.83;;;15.68;;
2620;SDS011;1320;48.128;11.592;2023-03-01T02:24:06;21.52;;;14.57;;
2620;SDS011;1320;48.128;11.592;2023-03-01T02:26:51;19.40;;;14.55;;
2620;SDS011;1320;48.128;11.592;2023-03-01T02:29:20;18.27;;;14.10;;
2620;SDS011;1320;48.128;11.592;2023-03-01T02:31:47;23.08;;;16.77;;
2620;SDS011;1320;48.128;11.592;2023-03-01T02:34:18;22.65;;;14.70;;
2620;SDS011;1320;48.128;11.592;2023-03-01T02:36:51;19.73;;;13.65;;
2620;SDS011;1320;48.128;11.592;2023-03-01T02:39:42;20.27;;;13.27;;
2620;SDS011;1320;48.128;11.592;2023-03-01T02:42:16;21.45;;;14.95;;
2620;SDS011;1320;48.128;11.592;2023-03-01T02:44:46;21.77;;;14.30;;
2620;SDS011;1320;48.128;11.592;2023-03-01T02:47:13;21.35;;;13.30;;
2620;SDS011;1320;48.128;11.592;2023-03-01T02:49:39;24.80;;;15.20;;
2620;SDS011;1320;48.128;11.592;2023-03-01T02:54:36;21.15;;;13.93;;
2620;SDS011;1320;48.128;11.592;2023-03-01T02:57:08;25.73;;;15.38;;
2620;SDS011;1320;48.128;11.592;2023-03-01T02:59:35;19.77;;;13.70;;
2620;SDS011;1320;48.128;11.592;2023-03-01T03:02:04;23.02;;;14.23;;
2620;SDS011;1320;48.128;11.592;2023-03-01T03:04:31;27.17;;;16.17;;
2620;SDS011;1320;48.128;11.592;2023-03-01T03:06:56;19.97;;;13.23;;
2620;SDS011;1320;48.128;11.592;2023-03-01T03:09:22;20.77;;;13.80;;
2620;SDS011;1320;48.128;11.592;2023-03-01T03:11:48;21.53;;;13.00;;
2620;SDS011;1320;48.128;11.592;2023-03-01T03:14:14;30.00;;;16.20;;
2620;SDS011;1320;48.128;11.592;2023-03-01T03:16:42;22.85;;;14.77;;
2620;SDS011;1320;48.128;11.592;2023-03-01T03:19:13;20.42;;;12.68;;
2620;SDS011;1320;48.128;11.592;2023-03-01T03:21:39;20.23;;;14.77;;
2620;SDS011;1320;48.128;11.592;2023-03-01T03:24:04;21.50;;;14.70;;
2620;SDS011;1320;48.128;11.592;2023-03-01T03:26:30;20.40;;;13.93;;
2620;SDS011;1320;48.128;11.592;2023-03-01T03:28:56;19.13;;;14.25;;
2620;SDS011;1320;48.128;11.592;2023-03-01T03:31:22;24.37;;;14.90;;
2620;SDS011;1320;48.128;11.592;2023-03-01T03:33:48;23.80;;;14.90;;
2620;SDS011;1320;48.128;11.592;2023-03-01T03:36:15;22.05;;;15.27;;
2620;SDS011;1320;48.128;11.592;2023-03-01T03:38:43;22.77;;;14.25;;
2620;SDS011;1320;48.128;11.592;2023-03-01T03:41:10;24.75;;;15.00;;
2620;SDS011;1320;48.128;11.592;2023-03-01T03:43:37;22.58;;;16.80;;
2620;SDS011;1320;48.128;11.592;2023-03-01T03:46:04;20.52;;;14.40;;
2620;SDS011;1320;48.128;11.592;2023-03-01T03:48:36;22.15;;;15.20;;
2620;SDS011;1320;48.128;11.592;2023-03-01T03:51:04;21.30;;;13.68;;
2620;SDS011;1320;48.128;11.592;2023-03-01T03:53:30;22.42;;;14.38;;
2620;SDS011;1320;48.128;11.592;2023-03-01T03:55:56;25.38;;;16.17;;
2620;SDS011;1320;48.128;11.592;2023-03-01T03:58:23;25.75;;;13.93;;
2620;SDS011;1320;48.128;11.592;2023-03-01T04:00:52;20.70;;;13.55;;
2620;SDS011;1320;48.128;11.592;2023-03-01T04:03:24;23.58;;;14.93;;
2620;SDS011;1320;48.128;11.592;2023-03-01T04:05:50;20.38;;;13.15;;
2620;SDS011;1320;48.128;11.592;2023-03-01T04:08:18;22.52;;;13.25;;
2620;SDS011;1320;48.128;11.592;2023-03-01T04:10:48;22.88;;;13.93;;
2620;SDS011;1320;48.128;11.592;2023-03-01T04:13:20;19.42;;;13.70;;
2620;SDS011;1320;48.128;11.592;2023-03-01T04:15:50;21.90;;;15.45;;
2620;SDS011;1320;48.128;11.592;2023-03-01T04:18:18;21.00;;;14.02;;
2620;SDS011;1320;48.128;11.592;2023-03-01T04:20:45;24.15;;;15.05;;
2620;SDS011;1320;48.128;11.592;2023-03-01T04:23:12;22.25;;;16.38;;
2620;SDS011;1320;48.128;11.592;2023-03-01T04:28:31;21.63;;;14.52;;
2620;SDS011;1320;48.128;11.592;2023-03-01T04:31:01;26.30;;;16.20;;
2620;SDS011;1320;48.128;11.592;2023-03-01T04:33:41;22.58;;;15.40;;
2620;SDS011;1320;48.128;11.592;2023-03-01T04:36:07;25.00;;;15.55;;
2620;SDS011;1320;48.128;11.592;2023-03-01T04:38:34;25.23;;;15.25;;
2620;SDS011;1320;48.128;11.592;2023-03-01T04:41:02;25.63;;;16.92;;
2620;SDS011;1320;48.128;11.592;2023-03-01T04:43:32;23.08;;;14.95;;
2620;SDS011;1320;48.128;11.592;2023-03-01T04:46:02;21.25;;;13.80;;
2620;SDS011;1320;48.128;11.592;2023-03-01T04:48:30;30.33;;;14.68;;
2620;SDS011;1320;48.128;11.592;2023-03-01T04:50:56;24.98;;;15.13;;
2620;SDS011;1320;48.128;11.592;2023-03-01T04:53:23;27.15;;;16.40;;
2620;SDS011;1320;48.128;11.592;2023-03-01T04:55:49;23.38;;;14.90;;
2620;SDS011;1320;48.128;11.592;2023-03-01T04:58:15;16.83;;;13.45;;
2620;SDS011;1320;48.128;11.592;2023-03-01T05:00:41;21.40;;;15.33;;
2620;SDS011;1320;48.128;11.592;2023-03-01T05:03:07;21.60;;;14.77;;
2620;SDS011;1320;48.128;11.592;2023-03-01T05:05:37;23.10;;;15.95;;
2620;SDS011;1320;48.128;11.592;2023-03-01T05:08:05;26.30;;;15.02;;
2620;SDS011;1320;48.128;11.592;2023-03-01T05:10:33;20.23;;;14.35;;
2620;SDS011;1320;48.128;11.592;2023-03-01T05:13:00;20.60;;;14.85;;
2620;SDS011;1320;48.128;11.592;2023-03-01T05:15:28;21.83;;;14.75;;
2620;SDS011;1320;48.128;11.592;2023-03-01T05:17:55;23.98;;;15.20;;
2620;SDS011;1320;48.128;11.592;2023-03-01T05:20:24;21.42;;;14.20;;
2620;SDS011;1320;48.128;11.592;2023-03-01T05:22:51;25.83;;;15.68;;
2620;SDS011;1320;48.128;11.592;2023-03-01T05:25:19;21.63;;;14.75;;
2620;SDS011;1320;48.128;11.592;2023-03-01T05:27:46;23.77;;;15.07;;
2620;SDS011;1320;48.128;11.592;2023-03-01T05:30:13;21.17;;;13.45;;
2620;SDS011;1320;48.128;11.592;2023-03-01T05:32:49;25.13;;;16.73;;
2620;SDS011;1320;48.128;11.592;2023-03-01T05:35:20;24.75;;;14.45;;
2620;SDS011;1320;48.128;11.592;2023-03-01T05:37:47;24.65;;;15.50;;
2620;SDS011;1320;48.128;11.592;2023-03-01T05:40:15;21.77;;;15.02;;
2620;SDS011;1320;48.128;11.592;2023-03-01T05:42:50;22.50;;;14.63;;
2620;SDS011;1320;48.128;11.592;2023-03-01T05:45:20;24.42;;;15.07;;
2620;SDS011;1320;48.128;11.592;2023-03-01T05:47:47;29.00;;;14.85;;
2620;SDS011;1320;48.128;11.592;2023-03-01T05:50:15;21.10;;;14.60;;
2620;SDS011;1320;48.128;11.592;2023-03-01T05:52:44;23.58;;;15.60;;
2620;SDS011;1320;48.128;11.592;2023-03-01T05:55:15;24.60;;;19.07;;
2620;SDS011;1320;48.128;11.592;2023-03-01T05:57:42;26.38;;;18.10;;
2620;SDS011;1320;48.128;11.592;2023-03-01T06:00:10;24.83;;;17.10;;
2620;SDS011;1320;48.128;11.592;2023-03-01T06:02:37;23.30;;;15.35;;
2620;SDS011;1320;48.128;11.592;2023-03-01T06:05:04;23.50;;;14.97;;
2620;SDS011;1320;48.128;11.592;2023-03-01T06:07:31;24.13;;;15.77;;
2620;SDS011;1320;48.128;11.592;2023-03-01T06:09:56;21.80;;;16.30;;
2620;SDS011;1320;48.128;11.592;2023-03-01T06:12:22;22.73;;;14.53;;
2620;SDS011;1320;48.128;11.592;2023-03-01T06:14:48;27.47;;;14.83;;
2620;SDS011;1320;48.128;11.592;2023-03-01T06:17:13;20.83;;;15.00;;
2620;SDS011;1320;48.128;11.592;2023-03-01T06:19:39;22.73;;;14.27;;
2620;SDS011;1320;48.128;11.592;2023-03-01T06:22:05;25.57;;;17.90;;
2620;SDS011;1320;48.128;11.592;2023-03-01T06:24:30;23.47;;;14.30;;
2620;SDS011;1320;48.128;11.592;2023-03-01T06:26:56;22.23;;;14.33;;
2620;SDS011;1320;48.128;11.592;2023-03-01T06:29:22;22.70;;;15.73;;
2620;SDS011;1320;48.128;11.592;2023-03-01T06:31:48;23.80;;;15.33;;
2620;SDS011;1320;48.128;11.592;2023-03-01T06:34:14;26.40;;;15.57;;
2620;SDS011;1320;48.128;11.592;2023-03-01T06:36:39;26.27;;;17.35;;
2620;SDS011;1320;48.128;11.592;2023-03-01T06:39:05;26.87;;;16.70;;
2620;SDS011;1320;48.128;11.592;2023-03-01T06:41:31;24.33;;;15.47;;
2620;SDS011;1320;48.128;11.592;2023-03-01T06:43:58;21.85;;;14.57;;
2620;SDS011;1320;48.128;11.592;2023-03-01T06:46:24;26.97;;;15.87;;
2620;SDS011;1320;48.128;11.592;2023-03-01T06:48:50;23.63;;;16.17;;
2620;SDS011;1320;48.128;11.592;2023-03-01T06:51:15;23.33;;;15.50;;
2620;SDS011;1320;48.128;11.592;2023-03-01T06:53:41;20.30;;;15.20;;
2620;SDS011;1320;48.128;11.592;2023-03-01T06:56:06;29.40;;;17.10;;
2620;SDS011;1320;48.128;11.592;2023-03-01T06:58:32;21.07;;;14.33;;
2620;SDS011;1320;48.128;11.592;2023-03-01T07:00:58;20.20;;;14.40;;
2620;SDS011;1320;48.128;11.592;2023-03-01T07:03:24;22.00;;;15.20;;
2620;SDS011;1320;48.128;11.592;2023-03-01T07:05:50;24.53;;;15.60;;
2620;SDS011;1320;48.128;11.592;2023-03-01T07:08:19;24.08;;;15.07;;
2620;SDS011;1320;48.128;11.592;2023-03-01T07:10:46;24.47;;;15.50;;
2620;SDS011;1320;48.128;11.592;2023-03-01T07:13:11;26.65;;;16.63;;
2620;SDS011;1320;48.128;11.592;2023-03-01T07:15:37;22.67;;;13.97;;
2620;SDS011;1320;48.128;11.592;2023-03-01T07:18:05;25.20;;;15.77;;
2620;SDS011;1320;48.128;11.592;2023-03-01T07:20:30;23.50;;;14.00;;
2620;SDS011;1320;48.128;11.592;2023-03-01T07:22:56;27.53;;;14.60;;
2620;SDS011;1320;48.128;11.592;2023-03-01T07:25:23;24.33;;;15.30;;
2620;SDS011;1320;48.128;11.592;2023-03-01T07:27:50;20.85;;;15.00;;
2620;SDS011;1320;48.128;11.592;2023-03-01T07:30:17;26.17;;;16.30;;
2620;SDS011;1320;48.128;11.592;2023-03-01T07:32:43;28.70;;;14.87;;
2620;SDS011;1320;48.128;11.592;2023-03-01T07:35:10;27.10;;;16.75;;
2620;SDS011;1320;48.128;11.592;2023-03-01T07:37:35;21.43;;;15.90;;
2620;SDS011;1320;48.128;11.592;2023-03-01T07:40:01;31.67;;;17.63;;
2620;SDS011;1320;48.128;11.592;2023-03-01T07:42:27;26.88;;;16.77;;
2620;SDS011;1320;48.128;11.592;2023-03-01T07:44:53;27.30;;;14.73;;
2620;SDS011;1320;48.128;11.592;2023-03-01T07:47:18;28.33;;;17.07;;
2620;SDS011;1320;48.128;11.592;2023-03-01T07:49:44;27.90;;;17.00;;
2620;SDS011;1320;48.128;11.592;2023-03-01T07:52:10;23.87;;;16.77;;
2620;SDS011;1320;48.128;11.592;2023-03-01T07:54:36;28.23;;;17.90;;
2620;SDS011;1320;48.128;11.592;2023-03-01T07:57:02;25.40;;;15.05;;
2620;SDS011;1320;48.128;11.592;2023-03-01T07:59:28;24.70;;;15.90;;
2620;SDS011;1320;48.128;11.592;2023-03-01T08:01:55;26.65;;;15.05;;
2620;SDS011;1320;48.128;11.592;2023-03-01T08:04:21;30.88;;;18.25;;
2620;SDS011;1320;48.128;11.592;2023-03-01T08:06:49;25.73;;;17.08;;
2620;SDS011;1320;48.128;11.592;2023-03-01T08:09:16;26.65;;;16.08;;
2620;SDS011;1320;48.128;11.592;2023-03-01T08:11:41;21.60;;;15.50;;
2620;SDS011;1320;48.128;11.592;2023-03-01T08:14:07;28.63;;;15.80;;
2620;SDS011;1320;48.128;11.592;2023-03-01T08:16:33;27.37;;;16.20;;
2620;SDS011;1320;48.128;11.592;2023-03-01T08:19:10;23.83;;;14.90;;
2620;SDS011;1320;48.128;11.592;2023-03-01T08:21:37;38.30;;;17.15;;
2620;SDS011;1320;48.128;11.592;2023-03-01T08:24:03;27.67;;;17.05;;
2620;SDS011;1320;48.128;11.592;2023-03-01T08:26:30;22.35;;;15.13;;
2620;SDS011;1320;48.128;11.592;2023-03-01T08:28:57;22.27;;;15.68;;
2620;SDS011;1320;48.128;11.592;2023-03-01T08:31:24;23.43;;;15.13;;
2620;SDS011;1320;48.128;11.592;2023-03-01T08:33:50;25.50;;;15.85;;
2620;SDS011;1320;48.128;11.592;2023-03-01T08:36:22;29.85;;;16.20;;
2620;SDS011;1320;48.128;11.592;2023-03-01T08:38:49;25.63;;;15.55;;
2620;SDS011;1320;48.128;11.592;2023-03-01T08:41:15;28.27;;;15.93;;
2620;SDS011;1320;48.128;11.592;2023-03-01T08:43:41;29.67;;;16.00;;
2620;SDS011;1320;48.128;11.592;2023-03-01T08:46:06;29.63;;;15.93;;
2620;SDS011;1320;48.128;11.592;2023-03-01T08:48:32;31.47;;;15.70;;
2620;SDS011;1320;48.128;11.592;2023-03-01T08:51:06;25.77;;;16.97;;
2620;SDS011;1320;48.128;11.592;2023-03-01T08:53:42;27.92;;;16.38;;
2620;SDS011;1320;48.128;11.592;2023-03-01T08:56:08;25.23;;;16.13;;
2620;SDS011;1320;48.128;11.592;2023-03-01T08:58:35;24.58;;;16.02;;
2620;SDS011;1320;48.128;11.592;2023-03-01T09:01:04;25.45;;;16.77;;
2620;SDS011;1320;48.128;11.592;2023-03-01T09:03:32;27.35;;;17.92;;
2620;SDS011;1320;48.128;11.592;2023-03-01T09:06:01;26.23;;;17.77;;
2620;SDS011;1320;48.128;11.592;2023-03-01T09:08:28;27.60;;;18.67;;
2620;SDS011;1320;48.128;11.592;2023-03-01T09:10:54;22.57;;;14.90;;
2620;SDS011;1320;48.128;11.592;2023-03-01T09:13:19;27.97;;;16.03;;
2620;SDS011;1320;48.128;11.592;2023-03-01T09:15:45;22.53;;;15.57;;
2620;SDS011;1320;48.128;11.592;2023-03-01T09:18:11;25.40;;;16.90;;
2620;SDS011;1320;48.128;11.592;2023-03-01T09:20:36;21.90;;;15.77;;
2620;SDS011;1320;48.128;11.592;2023-03-01T09:23:02;24.00;;;16.37;;
2620;SDS011;1320;48.128;11.592;2023-03-01T09:25:28;27.20;;;15.90;;
2620;SDS011;1320;48.128;11.592;2023-03-01T09:27:54;22.93;;;15.47;;
2620;SDS011;1320;48.128;11.592;2023-03-01T09:30:20;25.90;;;16.65;;
2620;SDS011;1320;48.128;11.592;2023-03-01T09:32:46;24.23;;;16.88;;
2620;SDS011;1320;48.128;11.592;2023-03-01T09:35:12;27.27;;;16.30;;
2620;SDS011;1320;48.128;11.592;2023-03-01T09:37:38;26.73;;;16.77;;
2620;SDS011;1320;48.128;11.592;2023-03-01T09:40:08;24.95;;;17.10;;
2620;SDS011;1320;48.128;11.592;2023-03-01T09:43:07;23.42;;;14.93;;
2620;SDS011;1320;48.128;11.592;2023-03-01T09:45:39;27.08;;;17.05;;
2620;SDS011;1320;48.128;11.592;2023-03-01T09:48:12;24.13;;;16.95;;
2620;SDS011;1320;48.128;11.592;2023-03-01T09:50:43;29.20;;;16.60;;
2620;SDS011;1320;48.128;11.592;2023-03-01T09:53:15;26.60;;;17.40;;
2620;SDS011;1320;48.128;11.592;2023-03-01T09:55:44;26.25;;;16.27;;
2620;SDS011;1320;48.128;11.592;2023-03-01T09:58:25;19.95;;;14.73;;
2620;SDS011;1320;48.128;11.592;2023-03-01T10:00:57;26.13;;;18.70;;
2620;SDS011;1320;48.128;11.592;2023-03-01T10:06:04;26.75;;;17.42;;
2620;SDS011;1320;48.128;11.592;2023-03-01T10:08:47;26.33;;;17.65;;
2620;SDS011;1320;48.128;11.592;2023-03-01T10:13:58;30.70;;;18.98;;
2620;SDS011;1320;48.128;11.592;2023-03-01T10:16:41;25.65;;;15.68;;
2620;SDS011;1320;48.128;11.592;2023-03-01T10:19:20;25.92;;;15.55;;
2620;SDS011;1320;48.128;11.592;2023-03-01T10:21:49;25.63;;;16.02;;
2620;SDS011;1320;48.128;11.592;2023-03-01T10:24:17;28.20;;;17.92;;
2620;SDS011;1320;48.128;11.592;2023-03-01T10:27:01;24.92;;;16.70;;
2620;SDS011;1320;48.128;11.592;2023-03-01T10:32:38;26.50;;;15.90;;
2620;SDS011;1320;48.128;11.592;2023-03-01T10:35:24;29.92;;;17.38;;
2620;SDS011;1320;48.128;11.592;2023-03-01T10:40:36;25.80;;;15.90;;
2620;SDS011;1320;48.128;11.592;2023-03-01T10:43:14;27.58;;;16.10;;
2620;SDS011;1320;48.128;11.592;2023-03-01T10:45:40;29.17;;;18.00;;
2620;SDS011;1320;48.128;11.592;2023-03-01T10:50:34;25.60;;;18.17;;
2620;SDS011;1320;48.128;11.592;2023-03-01T10:53:03;23.52;;;16.20;;
2620;SDS011;1320;48.128;11.592;2023-03-01T10:55:31;31.52;;;18.95;;
2620;SDS011;1320;48.128;11.592;2023-03-01T11:00:32;26.48;;;18.77;;
2620;SDS011;1320;48.128;11.592;2023-03-01T11:05:24;24.43;;;16.93;;
2620;SDS011;1320;48.128;11.592;2023-03-01T11:07:58;32.83;;;18.70;;
2620;SDS011;1320;48.128;11.592;2023-03-01T11:10:25;26.90;;;17.20;;
2620;SDS011;1320;48.128;11.592;2023-03-01T11:12:53;26.08;;;18.08;;
2620;SDS011;1320;48.128;11.592;2023-03-01T11:15:30;26.60;;;18.42;;
2620;SDS011;1320;48.128;11.592;2023-03-01T11:17:57;29.23;;;19.13;;
2620;SDS011;1320;48.128;11.592;2023-03-01T11:22:58;29.90;;;19.38;;
2620;SDS011;1320;48.128;11.592;2023-03-01T11:25:30;24.65;;;18.52;;
2620;SDS011;1320;48.128;11.592;2023-03-01T11:28:00;29.58;;;18.45;;
2620;SDS011;1320;48.128;11.592;2023-03-01T11:30:29;23.07;;;17.17;;
2620;SDS011;1320;48.128;11.592;2023-03-01T11:35:42;20.70;;;15.80;;
2620;SDS011;1320;48.128;11.592;2023-03-01T11:38:25;28.80;;;18.63;;
2620;SDS011;1320;48.128;11.592;2023-03-01T12:00:42;28.40;;;19.43;;
2620;SDS011;1320;48.128;11.592;2023-03-01T12:03:06;23.67;;;17.10;;
2620;SDS011;1320;48.128;11.592;2023-03-01T12:06:43;30.17;;;19.00;;
2620;SDS011;1320;48.128;11.592;2023-03-01T12:09:12;34.23;;;19.50;;
2620;SDS011;1320;48.128;11.592;2023-03-01T12:36:31;26.40;;;18.27;;
2620;SDS011;1320;48.128;11.592;2023-03-01T12:41:54;22.03;;;18.07;;
2620;SDS011;1320;48.128;11.592;2023-03-01T12:49:56;26.47;;;17.97;;
2620;SDS011;1320;48.128;11.592;2023-03-01T12:52:33;22.20;;;16.60;;
2620;SDS011;1320;48.128;11.592;2023-03-01T12:55:06;23.60;;;17.47;;
2620;SDS011;1320;48.128;11.592;2023-03-01T12:57:47;22.07;;;17.27;;
2620;SDS011;1320;48.128;11.592;2023-03-01T13:00:34;20.33;;;17.20;;
2620;SDS011;1320;48.128;11.592;2023-03-01T13:09:00;24.37;;;18.00;;
2620;SDS011;1320;48.128;11.592;2023-03-01T13:11:33;28.20;;;18.70;;
2620;SDS011;1320;48.128;11.592;2023-03-01T13:16:53;24.30;;;17.70;;
2620;SDS011;1320;48.128;11.592;2023-03-01T13:19:23;24.17;;;18.70;;
2620;SDS011;1320;48.128;11.592;2023-03-01T13:21:51;24.97;;;18.60;;
2620;SDS011;1320;48.128;11.592;2023-03-01T13:24:35;26.53;;;18.73;;
2620;SDS011;1320;48.128;11.592;2023-03-01T13:29:49;22.47;;;18.00;;
2620;SDS011;1320;48.128;11.592;2023-03-01T13:32:27;26.53;;;19.70;;
2620;SDS011;1320;48.128;11.592;2023-03-01T13:34:58;24.17;;;19.40;;
2620;SDS011;1320;48.128;11.592;2023-03-01T13:37:28;22.33;;;18.10;;
2620;SDS011;1320;48.128;11.592;2023-03-01T13:39:59;25.77;;;17.63;;
2620;SDS011;1320;48.128;11.592;2023-03-01T13:42:49;24.80;;;18.13;;
2620;SDS011;1320;48.128;11.592;2023-03-01T13:47:44;23.33;;;19.43;;
2620;SDS011;1320;48.128;11.592;2023-03-01T13:50:21;25.70;;;17.50;;
2620;SDS011;1320;48.128;11.592;2023-03-01T13:53:03;26.50;;;18.60;;
2620;SDS011;1320;48.128;11.592;2023-03-01T13:55:41;23.30;;;19.00;;
2620;SDS011;1320;48.128;11.592;2023-03-01T14:00:47;41.50;;;18.60;;
2620;SDS011;1320;48.128;11.592;2023-03-01T14:03:13;25.33;;;18.73;;
2620;SDS011;1320;48.128;11.592;2023-03-01T14:05:42;26.13;;;19.90;;
2620;SDS011;1320;48.128;11.592;2023-03-01T14:08:27;23.53;;;18.27;;
2620;SDS011;1320;48.128;11.592;2023-03-01T14:19:14;22.87;;;17.20;;
2620;SDS011;1320;48.128;11.592;2023-03-01T14:21:49;30.10;;;19.10;;
2620;SDS011;1320;48.128;11.592;2023-03-01T14:24:37;22.70;;;17.60;;
2620;SDS011;1320;48.128;11.592;2023-03-01T14:27:08;23.37;;;17.70;;
2620;SDS011;1320;48.128;11.592;2023-03-01T14:29:38;21.17;;;17.30;;
2620;SDS011;1320;48.128;11.592;2023-03-01T14:34:50;21.83;;;17.53;;
2620;SDS011;1320;48.128;11.592;2023-03-01T14:37:25;25.60;;;17.90;;
2620;SDS011;1320;48.128;11.592;2023-03-01T14:39:51;22.63;;;18.00;;
2620;SDS011;1320;48.128;11.592;2023-03-01T14:42:17;25.30;;;17.97;;
2620;SDS011;1320;48.128;11.592;2023-03-01T14:44:46;22.17;;;16.40;;
2620;SDS011;1320;48.128;11.592;2023-03-01T14:47:15;21.43;;;16.80;;
2620;SDS011;1320;48.128;11.592;2023-03-01T14:52:31;24.40;;;19.00;;
2620;SDS011;1320;48.128;11.592;2023-03-01T14:54:59;25.87;;;16.40;;
2620;SDS011;1320;48.128;11.592;2023-03-01T14:57:28;23.70;;;17.73;;
2620;SDS011;1320;48.128;11.592;2023-03-01T14:59:55;27.03;;;17.30;;
2620;SDS011;1320;48.128;11.592;2023-03-01T15:02:25;21.60;;;15.97;;
2620;SDS011;1320;48.128;11.592;2023-03-01T15:04:56;25.33;;;18.17;;
2620;SDS011;1320;48.128;11.592;2023-03-01T15:07:26;20.57;;;15.80;;
2620;SDS011;1320;48.128;11.592;2023-03-01T15:09:55;31.23;;;17.00;;
2620;SDS011;1320;48.128;11.592;2023-03-01T15:12:40;24.80;;;17.10;;
2620;SDS011;1320;48.128;11.592;2023-03-01T15:17:54;21.57;;;15.63;;
2620;SDS011;1320;48.128;11.592;2023-03-01T15:20:23;23.00;;;16.30;;
2620;SDS011;1320;48.128;11.592;2023-03-01T15:22:51;23.27;;;16.40;;
2620;SDS011;1320;48.128;11.592;2023-03-01T15:25:18;20.60;;;15.37;;
2620;SDS011;1320;48.128;11.592;2023-03-01T15:27:46;24.30;;;16.57;;
2620;SDS011;1320;48.128;11.592;2023-03-01T15:30:13;21.03;;;15.77;;
2620;SDS011;1320;48.128;11.592;2023-03-01T15:32:44;20.23;;;15.53;;
2620;SDS011;1320;48.128;11.592;2023-03-01T15:41:37;26.57;;;15.33;;
2620;SDS011;1320;48.128;11.592;2023-03-01T15:44:15;21.83;;;15.07;;
2620;SDS011;1320;48.128;11.592;2023-03-01T15:46:55;18.63;;;13.90;;
2620;SDS011;1320;48.128;11.592;2023-03-01T15:52:02;24.10;;;15.33;;
2620;SDS011;1320;48.128;11.592;2023-03-01T15:54:28;23.00;;;15.67;;
2620;SDS011;1320;48.128;11.592;2023-03-01T15:56:55;21.43;;;14.50;;
2620;SDS011;1320;48.128;11.592;2023-03-01T15:59:21;21.40;;;15.00;;
2620;SDS011;1320;48.128;11.592;2023-03-01T16:01:47;22.93;;;15.40;;
2620;SDS011;1320;48.128;11.592;2023-03-01T16:04:14;25.67;;;16.77;;
2620;SDS011;1320;48.128;11.592;2023-03-01T16:06:49;19.93;;;14.50;;
2620;SDS011;1320;48.128;11.592;2023-03-01T16:09:23;21.37;;;14.03;;
2620;SDS011;1320;48.128;11.592;2023-03-01T16:11:51;21.40;;;14.93;;
2620;SDS011;1320;48.128;11.592;2023-03-01T16:14:17;22.93;;;16.10;;
2620;SDS011;1320;48.128;11.592;2023-03-01T16:16:44;20.97;;;13.50;;
2620;SDS011;1320;48.128;11.592;2023-03-01T16:19:10;22.30;;;16.10;;
2620;SDS011;1320;48.128;11.592;2023-03-01T16:21:36;23.73;;;15.87;;
2620;SDS011;1320;48.128;11.592;2023-03-01T16:24:03;21.27;;;15.03;;
2620;SDS011;1320;48.128;11.592;2023-03-01T16:26:29;20.03;;;15.07;;
2620;SDS011;1320;48.128;11.592;2023-03-01T16:28:55;23.80;;;16.20;;
2620;SDS011;1320;48.128;11.592;2023-03-01T16:31:21;24.17;;;16.10;;
2620;SDS011;1320;48.128;11.592;2023-03-01T16:33:48;24.60;;;15.33;;
2620;SDS011;1320;48.128;11.592;2023-03-01T16:36:18;53.10;;;16.10;;
2620;SDS011;1320;48.128;11.592;2023-03-01T16:38:44;30.73;;;14.53;;
2620;SDS011;1320;48.128;11.592;2023-03-01T16:41:11;24.87;;;15.30;;
2620;SDS011;1320;48.128;11.592;2023-03-01T16:43:39;19.23;;;13.70;;
2620;SDS011;1320;48.128;11.592;2023-03-01T16:46:16;20.67;;;14.20;;
2620;SDS011;1320;48.128;11.592;2023-03-01T16:48:46;22.20;;;14.70;;
2620;SDS011;1320;48.128;11.592;2023-03-01T16:51:12;15.87;;;12.20;;
2620;SDS011;1320;48.128;11.592;2023-03-01T16:53:38;21.13;;;12.97;;
2620;SDS011;1320;48.128;11.592;2023-03-01T16:56:04;17.80;;;12.07;;